createdAt,value
2019-02-10T00:00:04.481Z,6.00
2019-02-10T00:02:37.718Z,6.00
2019-02-10T00:05:09.615Z,5.90
2019-02-10T00:07:41.228Z,5.90
2019-02-10T00:10:12.897Z,5.80
2019-02-10T00:13:25.127Z,5.90
2019-02-10T00:15:56.871Z,5.90
2019-02-10T00:18:28.730Z,6.00
2019-02-10T00:21:00.329Z,6.00
2019-02-10T00:23:31.995Z,6.00
2019-02-10T00:26:03.229Z,6.00
2019-02-10T00:28:35.441Z,5.90
2019-02-10T00:31:07.253Z,5.90
2019-02-10T00:33:38.236Z,5.90
2019-02-10T00:36:10.092Z,5.90
2019-02-10T00:38:41.745Z,5.90
2019-02-10T00:41:13.989Z,6.00
2019-02-10T00:43:45.568Z,6.00
2019-02-10T00:46:17.090Z,6.00
2019-02-10T00:48:48.752Z,6.00
2019-02-10T00:51:20.755Z,6.00
2019-02-10T00:53:52.081Z,5.90
2019-02-10T00:56:23.331Z,6.00
2019-02-10T00:58:54.858Z,6.00
2019-02-10T01:01:26.764Z,6.00
2019-02-10T01:03:58.723Z,5.90
2019-02-10T01:06:30.583Z,5.90
2019-02-10T01:09:01.902Z,5.90
2019-02-10T01:11:33.978Z,5.90
2019-02-10T01:14:04.988Z,5.80
2019-02-10T01:16:36.803Z,5.80
2019-02-10T01:19:14.907Z,5.90
2019-02-10T01:21:47.474Z,5.90
2019-02-10T01:24:20.002Z,5.90
2019-02-10T01:26:51.567Z,5.90
2019-02-10T01:29:23.568Z,5.90
2019-02-10T01:31:55.217Z,5.90
2019-02-10T01:34:26.222Z,6.00
2019-02-10T01:36:58.418Z,5.90
2019-02-10T01:39:30.689Z,5.90
2019-02-10T01:42:02.840Z,5.90
2019-02-10T01:44:34.518Z,5.90
2019-02-10T01:47:06.612Z,5.80
2019-02-10T01:49:38.220Z,5.80
2019-02-10T01:52:10.169Z,5.70
2019-02-10T01:54:42.036Z,5.70
2019-02-10T01:57:14.127Z,5.60
2019-02-10T01:59:45.443Z,5.60
2019-02-10T02:02:17.413Z,5.60
2019-02-10T02:04:49.613Z,5.60
2019-02-10T02:07:20.955Z,5.70
2019-02-10T02:09:52.903Z,5.60
2019-02-10T02:12:25.678Z,5.70
2019-02-10T02:14:57.915Z,5.70
2019-02-10T02:17:29.251Z,5.70
2019-02-10T02:20:01.482Z,5.70
2019-02-10T02:22:33.627Z,5.80
2019-02-10T02:25:09.048Z,5.80
2019-02-10T02:27:40.890Z,5.80
2019-02-10T02:30:17.090Z,5.90
2019-02-10T02:32:48.344Z,5.90
2019-02-10T02:35:20.183Z,6.00
2019-02-10T02:37:51.514Z,6.00
2019-02-10T02:40:23.485Z,6.00
2019-02-10T02:42:55.483Z,6.10
2019-02-10T02:45:27.370Z,6.10
2019-02-10T02:47:59.188Z,6.10
2019-02-10T02:50:30.506Z,6.00
2019-02-10T02:53:01.755Z,6.00
2019-02-10T02:55:33.596Z,6.00
2019-02-10T02:58:05.828Z,6.00
2019-02-10T03:00:36.922Z,6.00
2019-02-10T03:03:08.381Z,6.00
2019-02-10T03:05:39.953Z,6.00
2019-02-10T03:08:12.059Z,6.00
2019-02-10T03:10:44.164Z,5.90
2019-02-10T03:13:15.751Z,5.90
2019-02-10T03:15:47.808Z,5.90
2019-02-10T03:18:19.140Z,5.90
2019-02-10T03:20:50.711Z,6.00
2019-02-10T03:23:22.615Z,6.00
2019-02-10T03:25:54.200Z,5.90
2019-02-10T03:28:26.083Z,6.00
2019-02-10T03:30:57.849Z,6.00
2019-02-10T03:33:29.455Z,6.10
2019-02-10T03:36:00.713Z,6.00
2019-02-10T03:38:32.806Z,6.10
2019-02-10T03:41:03.816Z,6.10
2019-02-10T03:43:35.136Z,6.20
2019-02-10T03:46:06.800Z,6.10
2019-02-10T03:48:38.341Z,6.10
2019-02-10T03:51:09.909Z,6.10
2019-02-10T03:53:41.233Z,6.10
2019-02-10T03:56:13.099Z,6.10
2019-02-10T03:58:44.668Z,6.10
2019-02-10T04:01:16.492Z,6.10
2019-02-10T04:03:48.327Z,6.10
2019-02-10T04:06:20.069Z,6.10
2019-02-10T04:08:51.699Z,6.20
2019-02-10T04:11:23.280Z,6.20
2019-02-10T04:13:54.902Z,6.20
2019-02-10T04:16:26.195Z,6.30
2019-02-10T04:18:58.105Z,6.20
2019-02-10T04:21:29.631Z,6.30
2019-02-10T04:24:00.931Z,6.30
2019-02-10T04:26:32.264Z,6.30
2019-02-10T04:29:03.815Z,6.20
2019-02-10T04:31:35.183Z,6.30
2019-02-10T04:34:07.021Z,6.30
2019-02-10T04:36:38.701Z,6.30
2019-02-10T04:39:10.627Z,6.30
2019-02-10T04:41:41.637Z,6.30
2019-02-10T04:44:12.644Z,6.30
2019-02-10T04:46:44.200Z,6.30
2019-02-10T04:49:15.681Z,6.30
2019-02-10T04:51:47.495Z,6.30
2019-02-10T04:54:18.732Z,6.40
2019-02-10T04:56:50.720Z,6.40
2019-02-10T04:59:22.572Z,6.40
2019-02-10T05:01:53.879Z,6.50
2019-02-10T05:04:24.883Z,6.50
2019-02-10T05:06:56.530Z,6.50
2019-02-10T05:09:28.431Z,6.50
2019-02-10T05:12:00.168Z,6.40
2019-02-10T05:14:31.797Z,6.50
2019-02-10T05:17:04.071Z,6.50
2019-02-10T05:19:36.731Z,6.50
2019-02-10T05:22:08.091Z,6.50
2019-02-10T05:24:39.695Z,6.50
2019-02-10T05:27:11.483Z,6.50
2019-02-10T05:29:43.314Z,6.50
2019-02-10T05:32:14.594Z,6.40
2019-02-10T05:34:45.946Z,6.50
2019-02-10T05:37:17.599Z,6.50
2019-02-10T05:39:49.230Z,6.50
2019-02-10T05:42:20.915Z,6.50
2019-02-10T05:44:51.921Z,6.50
2019-02-10T05:47:23.204Z,6.60
2019-02-10T05:49:54.814Z,6.50
2019-02-10T05:52:27.707Z,6.50
2019-02-10T05:54:59.289Z,6.50
2019-02-10T05:57:30.631Z,6.50
2019-02-10T06:00:02.830Z,6.50
2019-02-10T06:02:34.191Z,6.40
2019-02-10T06:05:26.778Z,6.30
2019-02-10T06:07:59.375Z,6.30
2019-02-10T06:10:31.706Z,6.20
2019-02-10T06:13:02.707Z,6.10
2019-02-10T06:15:34.025Z,6.00
2019-02-10T06:18:05.030Z,6.00
2019-02-10T06:20:36.832Z,6.00
2019-02-10T06:23:08.477Z,6.00
2019-02-10T06:25:40.101Z,6.00
2019-02-10T06:28:12.311Z,5.90
2019-02-10T06:30:44.639Z,5.90
2019-02-10T06:33:15.892Z,5.90
2019-02-10T06:35:47.432Z,5.80
2019-02-10T06:38:22.430Z,5.90
2019-02-10T06:40:52.556Z,5.80
2019-02-10T06:43:23.789Z,5.80
2019-02-10T06:45:55.293Z,5.80
2019-02-10T06:48:26.670Z,5.70
2019-02-10T06:50:58.305Z,5.70
2019-02-10T06:53:30.179Z,5.70
2019-02-10T06:56:02.055Z,5.70
2019-02-10T06:58:33.272Z,5.70
2019-02-10T07:01:17.361Z,5.70
2019-02-10T07:04:32.091Z,5.70
2019-02-10T07:07:03.747Z,5.70
2019-02-10T07:09:36.129Z,5.70
2019-02-10T07:12:47.435Z,5.70
2019-02-10T07:16:13.438Z,5.70
2019-02-10T07:19:52.818Z,5.70
2019-02-10T07:23:20.680Z,5.70
2019-02-10T07:25:57.701Z,5.70
2019-02-10T07:29:36.761Z,5.70
2019-02-10T07:32:19.242Z,5.70
2019-02-10T07:35:40.541Z,5.70
2019-02-10T07:39:13.752Z,5.80
2019-02-10T07:42:38.663Z,5.80
2019-02-10T07:45:36.411Z,5.90
2019-02-10T07:49:01.109Z,5.90
2019-02-10T07:51:56.490Z,6.00
2019-02-10T07:55:13.072Z,6.00
2019-02-10T07:58:24.822Z,6.00
2019-02-10T08:01:31.235Z,6.10
2019-02-10T08:04:41.057Z,6.10
2019-02-10T08:08:28.577Z,6.20
2019-02-10T08:11:52.705Z,6.20
2019-02-10T08:15:27.773Z,6.30
2019-02-10T08:18:38.828Z,6.30
2019-02-10T08:22:10.774Z,6.30
2019-02-10T08:25:20.119Z,6.40
2019-02-10T08:28:26.154Z,6.40
2019-02-10T08:31:13.063Z,6.50
2019-02-10T08:34:27.699Z,6.50
2019-02-10T08:37:50.378Z,6.60
2019-02-10T08:41:14.320Z,6.60
2019-02-10T08:44:26.560Z,6.70
2019-02-10T08:47:08.009Z,6.70
2019-02-10T08:50:17.895Z,6.70
2019-02-10T08:52:58.462Z,6.80
2019-02-10T08:55:30.280Z,6.80
2019-02-10T08:58:02.311Z,6.90
2019-02-10T09:00:34.318Z,6.90
2019-02-10T09:03:05.639Z,6.90
2019-02-10T09:05:36.992Z,7.00
2019-02-10T09:08:08.323Z,7.00
2019-02-10T09:10:39.645Z,7.00
2019-02-10T09:13:10.676Z,7.10
2019-02-10T09:15:42.263Z,7.10
2019-02-10T09:18:14.222Z,7.10
2019-02-10T09:20:45.575Z,7.10
2019-02-10T09:23:16.990Z,7.20
2019-02-10T09:25:48.995Z,7.20
2019-02-10T09:28:20.540Z,7.30
2019-02-10T09:30:52.458Z,7.30
2019-02-10T09:33:23.779Z,7.40
2019-02-10T09:35:55.159Z,7.50
2019-02-10T09:38:26.823Z,7.60
2019-02-10T09:40:58.394Z,7.70
2019-02-10T09:43:30.245Z,7.70
2019-02-10T09:46:02.390Z,7.70
2019-02-10T09:48:35.467Z,7.80
2019-02-10T09:51:07.279Z,7.90
2019-02-10T09:53:39.231Z,7.90
2019-02-10T09:56:10.853Z,7.90
2019-02-10T09:58:42.548Z,7.90
2019-02-10T10:01:14.811Z,7.90
2019-02-10T10:03:46.159Z,7.90
2019-02-10T10:06:18.073Z,7.90
2019-02-10T10:08:49.679Z,7.90
2019-02-10T10:11:21.548Z,7.80
2019-02-10T10:13:53.428Z,7.80
2019-02-10T10:16:25.355Z,7.70
2019-02-10T10:18:56.733Z,7.70
2019-02-10T10:21:28.673Z,7.70
2019-02-10T10:24:00.310Z,7.70
2019-02-10T10:26:31.977Z,7.60
2019-02-10T10:29:03.324Z,7.60
2019-02-10T10:31:34.772Z,7.60
2019-02-10T10:34:06.424Z,7.60
2019-02-10T10:36:38.446Z,7.60
2019-02-10T10:39:09.752Z,7.60
2019-02-10T10:41:41.289Z,7.60
2019-02-10T10:44:12.440Z,7.70
2019-02-10T10:46:44.394Z,7.80
2019-02-10T10:49:16.500Z,7.90
2019-02-10T10:51:47.736Z,8.00
2019-02-10T10:54:20.806Z,8.00
2019-02-10T10:56:52.404Z,8.10
2019-02-10T10:59:24.001Z,8.10
2019-02-10T11:01:55.354Z,8.10
2019-02-10T11:04:27.107Z,8.10
2019-02-10T11:06:59.065Z,8.00
2019-02-10T11:09:35.608Z,8.00
2019-02-10T11:12:04.218Z,8.00
2019-02-10T11:14:35.815Z,8.10
2019-02-10T11:17:10.515Z,8.20
2019-02-10T11:19:41.510Z,8.30
2019-02-10T11:22:13.196Z,8.30
2019-02-10T11:24:44.815Z,8.50
2019-02-10T11:27:16.528Z,8.60
2019-02-10T11:29:48.230Z,8.70
2019-02-10T11:32:19.580Z,8.70
2019-02-10T11:34:51.476Z,8.80
2019-02-10T11:37:26.846Z,8.80
2019-02-10T11:39:55.750Z,8.80
2019-02-10T11:42:27.563Z,8.70
2019-02-10T11:44:58.906Z,8.70
2019-02-10T11:47:31.492Z,8.70
2019-02-10T11:50:02.922Z,8.70
2019-02-10T11:52:34.274Z,8.60
2019-02-10T11:55:06.010Z,8.60
2019-02-10T11:57:37.966Z,8.60
2019-02-10T12:00:11.880Z,8.60
2019-02-10T12:02:43.412Z,8.60
2019-02-10T12:05:15.109Z,8.50
2019-02-10T12:07:46.942Z,8.50
2019-02-10T12:10:18.373Z,8.50
2019-02-10T12:12:49.468Z,8.50
2019-02-10T12:15:21.217Z,8.40
2019-02-10T12:17:53.050Z,8.40
2019-02-10T12:20:24.320Z,8.40
2019-02-10T12:22:56.401Z,8.50
2019-02-10T12:25:28.035Z,8.50
2019-02-10T12:27:59.695Z,8.50
2019-02-10T12:30:31.066Z,8.50
2019-02-10T12:33:02.354Z,8.50
2019-02-10T12:35:33.711Z,8.50
2019-02-10T12:38:05.253Z,8.40
2019-02-10T12:40:38.201Z,8.40
2019-02-10T12:43:09.202Z,8.40
2019-02-10T12:45:41.129Z,8.40
2019-02-10T12:48:12.738Z,8.50
2019-02-10T12:50:44.223Z,8.50
2019-02-10T12:53:15.836Z,8.50
2019-02-10T12:55:47.485Z,8.50
2019-02-10T12:58:18.839Z,8.50
2019-02-10T13:00:49.931Z,8.50
2019-02-10T13:03:21.204Z,8.40
2019-02-10T13:05:53.160Z,8.50
2019-02-10T13:08:24.499Z,8.50
2019-02-10T13:10:55.879Z,8.50
2019-02-10T13:13:27.532Z,8.50
2019-02-10T13:15:59.138Z,8.50
2019-02-10T13:18:30.526Z,8.50
2019-02-10T13:21:01.851Z,8.50
2019-02-10T13:23:33.125Z,8.50
2019-02-10T13:26:04.577Z,8.60
2019-02-10T13:28:36.847Z,8.60
2019-02-10T13:31:08.534Z,8.60
2019-02-10T13:33:40.242Z,8.60
2019-02-10T13:36:12.097Z,8.60
2019-02-10T13:38:44.308Z,8.60
2019-02-10T13:41:16.363Z,8.60
2019-02-10T13:43:48.243Z,8.60
2019-02-10T13:46:19.843Z,8.60
2019-02-10T13:48:51.373Z,8.60
2019-02-10T13:51:22.380Z,8.60
2019-02-10T13:53:53.688Z,8.60
2019-02-10T13:56:24.701Z,8.70
2019-02-10T13:58:56.475Z,8.70
2019-02-10T14:01:27.966Z,8.70
2019-02-10T14:03:59.720Z,8.70
2019-02-10T14:06:31.016Z,8.70
2019-02-10T14:09:03.705Z,8.70
2019-02-10T14:11:36.235Z,8.70
2019-02-10T14:14:08.480Z,8.70
2019-02-10T14:16:39.824Z,8.70
2019-02-10T14:19:10.844Z,8.70
2019-02-10T14:21:42.777Z,8.70
2019-02-10T14:24:14.073Z,8.70
2019-02-10T14:26:45.979Z,8.70
2019-02-10T14:29:17.819Z,8.70
2019-02-10T14:31:49.137Z,8.60
2019-02-10T14:34:22.020Z,8.60
2019-02-10T14:36:53.369Z,8.60
2019-02-10T14:39:25.019Z,8.50
2019-02-10T14:41:56.338Z,8.50
2019-02-10T14:44:28.535Z,8.50
2019-02-10T14:47:00.185Z,8.50
2019-02-10T14:49:31.416Z,8.50
2019-02-10T14:52:03.289Z,8.50
2019-02-10T14:54:35.271Z,8.50
2019-02-10T14:57:06.371Z,8.50
2019-02-10T14:59:37.379Z,8.50
2019-02-10T15:02:08.993Z,8.40
2019-02-10T15:04:40.868Z,8.40
2019-02-10T15:07:12.718Z,8.40
2019-02-10T15:09:45.028Z,8.40
2019-02-10T15:12:16.500Z,8.40
2019-02-10T15:14:48.048Z,8.40
2019-02-10T15:17:19.728Z,8.40
2019-02-10T15:19:51.281Z,8.40
2019-02-10T15:22:23.858Z,8.40
2019-02-10T15:24:55.219Z,8.40
2019-02-10T15:27:26.369Z,8.40
2019-02-10T15:29:57.419Z,8.40
2019-02-10T15:32:28.960Z,8.40
2019-02-10T15:35:00.873Z,8.50
2019-02-10T15:37:32.849Z,8.50
2019-02-10T15:40:05.987Z,8.50
2019-02-10T15:42:37.456Z,8.50
2019-02-10T15:45:09.844Z,8.50
2019-02-10T15:47:42.971Z,8.60
2019-02-10T15:50:14.736Z,8.60
2019-02-10T15:52:45.832Z,8.60
2019-02-10T15:55:17.107Z,8.60
2019-02-10T15:57:48.355Z,8.60
2019-02-10T16:00:23.509Z,8.60
2019-02-10T16:02:55.874Z,8.60
2019-02-10T16:05:27.715Z,8.60
2019-02-10T16:07:58.723Z,8.60
2019-02-10T16:10:29.734Z,8.50
2019-02-10T16:13:01.323Z,8.50
2019-02-10T16:15:32.919Z,8.50
2019-02-10T16:18:06.107Z,8.50
2019-02-10T16:20:38.129Z,8.60
2019-02-10T16:23:09.887Z,8.60
2019-02-10T16:25:41.586Z,8.50
2019-02-10T16:28:13.238Z,8.50
2019-02-10T16:30:46.218Z,8.40
2019-02-10T16:33:18.023Z,8.50
2019-02-10T16:35:49.636Z,8.50
2019-02-10T16:38:21.601Z,8.60
2019-02-10T16:40:52.847Z,8.60
2019-02-10T16:43:24.510Z,8.50
2019-02-10T16:45:56.443Z,8.40
2019-02-10T16:48:28.103Z,8.30
2019-02-10T16:50:59.461Z,8.20
2019-02-10T16:53:31.349Z,8.00
2019-02-10T16:56:02.979Z,7.80
2019-02-10T16:58:34.792Z,7.70
2019-02-10T17:01:06.393Z,7.60
2019-02-10T17:03:37.735Z,7.50
2019-02-10T17:06:08.751Z,7.40
2019-02-10T17:08:40.666Z,7.30
2019-02-10T17:11:14.387Z,7.30
2019-02-10T17:13:45.478Z,7.30
2019-02-10T17:16:17.105Z,7.20
2019-02-10T17:18:48.665Z,7.30
2019-02-10T17:21:20.687Z,7.20
2019-02-10T17:23:52.832Z,7.20
2019-02-10T17:26:24.974Z,7.20
2019-02-10T17:28:56.218Z,7.20
2019-02-10T17:31:27.767Z,7.20
2019-02-10T17:33:58.840Z,7.20
2019-02-10T17:36:30.171Z,7.20
2019-02-10T17:39:01.459Z,7.20
2019-02-10T17:41:42.053Z,7.30
2019-02-10T17:44:14.077Z,7.30
2019-02-10T17:46:46.650Z,7.30
2019-02-10T17:49:18.520Z,7.40
2019-02-10T17:51:49.935Z,7.40
2019-02-10T17:54:21.262Z,7.40
2019-02-10T17:56:52.284Z,7.40
2019-02-10T17:59:23.835Z,7.40
2019-02-10T18:01:54.844Z,7.40
2019-02-10T18:04:26.460Z,7.50
2019-02-10T18:06:58.374Z,7.40
2019-02-10T18:09:30.195Z,7.50
2019-02-10T18:12:01.440Z,7.40
2019-02-10T18:14:51.613Z,7.40
2019-02-10T18:17:29.416Z,7.30
2019-02-10T18:20:25.252Z,7.30
2019-02-10T18:23:06.617Z,7.20
2019-02-10T18:25:50.373Z,7.10
2019-02-10T18:28:33.180Z,7.10
2019-02-10T18:31:31.175Z,7.10
2019-02-10T18:34:08.432Z,7.20
2019-02-10T18:36:59.955Z,7.20
2019-02-10T18:39:43.278Z,7.20
2019-02-10T18:42:24.809Z,7.30
2019-02-10T18:45:04.403Z,7.30
2019-02-10T18:48:09.564Z,7.30
2019-02-10T18:50:57.052Z,7.30
2019-02-10T18:53:39.102Z,7.30
2019-02-10T18:56:18.324Z,7.30
2019-02-10T18:59:17.866Z,7.30
2019-02-10T19:02:01.682Z,7.30
2019-02-10T19:04:58.294Z,7.30
2019-02-10T19:07:45.133Z,7.20
2019-02-10T19:10:27.928Z,7.20
2019-02-10T19:13:18.219Z,7.10
2019-02-10T19:15:59.176Z,7.10
2019-02-10T19:18:39.031Z,7.00
2019-02-10T19:21:24.742Z,7.00
2019-02-10T19:24:08.343Z,7.00
2019-02-10T19:27:08.499Z,6.90
2019-02-10T19:29:57.830Z,6.80
2019-02-10T19:32:44.223Z,6.80
2019-02-10T19:35:33.188Z,6.70
2019-02-10T19:38:30.288Z,6.60
2019-02-10T19:41:19.347Z,6.60
2019-02-10T19:44:08.527Z,6.50
2019-02-10T19:46:53.160Z,6.40
2019-02-10T19:49:58.972Z,6.50
2019-02-10T19:52:53.784Z,6.60
2019-02-10T19:55:37.667Z,6.60
2019-02-10T19:58:22.422Z,6.60
2019-02-10T20:01:06.436Z,6.60
2019-02-10T20:03:59.494Z,6.50
2019-02-10T20:06:36.408Z,6.60
2019-02-10T20:09:29.845Z,6.60
2019-02-10T20:12:29.615Z,6.60
2019-02-10T20:15:26.495Z,6.60
2019-02-10T20:18:16.068Z,6.50
2019-02-10T20:21:07.493Z,6.50
2019-02-10T20:23:48.494Z,6.50
2019-02-10T20:26:39.370Z,6.50
2019-02-10T20:29:28.472Z,6.50
2019-02-10T20:32:12.273Z,6.50
2019-02-10T20:35:09.315Z,6.50
2019-02-10T20:37:45.932Z,6.40
2019-02-10T20:40:39.250Z,6.40
2019-02-10T20:43:28.295Z,6.30
2019-02-10T20:46:36.648Z,6.30
2019-02-10T20:49:26.919Z,6.30
2019-02-10T20:52:06.563Z,6.30
2019-02-10T20:55:05.896Z,6.20
2019-02-10T20:57:47.359Z,6.20
2019-02-10T21:00:30.172Z,6.30
2019-02-10T21:03:36.742Z,6.20
2019-02-10T21:06:27.032Z,6.20
2019-02-10T21:09:14.563Z,6.20
2019-02-10T21:12:03.177Z,6.20
2019-02-10T21:15:00.506Z,6.10
2019-02-10T21:17:39.835Z,6.10
2019-02-10T21:20:26.915Z,6.00
2019-02-10T21:23:23.562Z,6.00
2019-02-10T21:26:00.779Z,6.00
2019-02-10T21:28:48.207Z,5.90
2019-02-10T21:31:38.667Z,5.80
2019-02-10T21:34:23.219Z,5.80
2019-02-10T21:37:23.135Z,5.80
2019-02-10T21:40:12.514Z,5.70
2019-02-10T21:43:08.724Z,5.70
2019-02-10T21:46:04.709Z,5.60
2019-02-10T21:48:49.773Z,5.60
2019-02-10T21:51:21.590Z,5.50
2019-02-10T21:53:53.481Z,5.50
2019-02-10T21:56:25.644Z,5.50
2019-02-10T21:58:56.958Z,5.60
2019-02-10T22:01:29.049Z,5.60
2019-02-10T22:04:00.481Z,5.60
2019-02-10T22:06:32.344Z,5.60
2019-02-10T22:09:05.536Z,5.60
2019-02-10T22:11:37.419Z,5.60
2019-02-10T22:14:09.571Z,5.50
2019-02-10T22:16:41.449Z,5.50
2019-02-10T22:19:13.039Z,5.40
2019-02-10T22:21:44.423Z,5.40
2019-02-10T22:24:16.600Z,5.40
2019-02-10T22:26:47.598Z,5.30
2019-02-10T22:29:18.975Z,5.30
2019-02-10T22:31:50.033Z,5.30
2019-02-10T22:34:21.320Z,5.20
2019-02-10T22:36:52.904Z,5.20
2019-02-10T22:39:24.158Z,5.20
2019-02-10T22:41:55.709Z,5.10
2019-02-10T22:44:27.265Z,5.10
2019-02-10T22:46:59.010Z,5.10
2019-02-10T22:49:30.778Z,5.10
2019-02-10T22:52:02.391Z,5.10
2019-02-10T22:54:33.675Z,5.00
2019-02-10T22:57:05.594Z,5.00
2019-02-10T22:59:36.884Z,5.00
2019-02-10T23:02:07.670Z,5.00
2019-02-10T23:04:39.463Z,5.00
2019-02-10T23:07:11.342Z,5.00
2019-02-10T23:09:43.206Z,5.00
2019-02-10T23:12:14.436Z,4.90
2019-02-10T23:14:46.120Z,4.90
2019-02-10T23:17:17.709Z,4.80
2019-02-10T23:19:49.299Z,4.80
2019-02-10T23:22:20.947Z,4.70
2019-02-10T23:24:52.955Z,4.70
2019-02-10T23:27:24.884Z,4.70
2019-02-10T23:29:56.226Z,4.60
2019-02-10T23:32:28.324Z,4.60
2019-02-10T23:35:00.251Z,4.50
2019-02-10T23:37:31.561Z,4.50
2019-02-10T23:40:03.223Z,4.50
2019-02-10T23:42:35.351Z,4.50
2019-02-10T23:45:07.901Z,4.50
2019-02-10T23:47:40.032Z,4.50
2019-02-10T23:50:11.709Z,4.50
2019-02-10T23:52:43.699Z,4.50
2019-02-10T23:55:15.772Z,4.40
2019-02-10T23:57:47.043Z,4.40
